Jersey City, Wisconsin
Current Conditions -  °F | °C
As of 4:55 AM on Wednesday 22 Oct 2014 (Local Time) from KTKV Reporting Station
Clear Clear  
Wind Chill: 29°   Ceiling: Unl
Heat Index: 29°   Visibility: 10mi
Dew Point: 28°   Wind: 0mph
Humidity: 97%   Direction: NA
Pressure: 30.3"   Gusts: NA
Location:  45.5047°N, 89.7732°W
Report Text: KTKV 220955Z AUTO 00000KT 10SM CLR M02/M02 A3030 RMK AO2 T10191023
Loading
Personal Weather Stations






























Interactive Weather Map
Tropical Storm Tracking
New forecast layout! Learn more

10-Day Weather Forecast

Advertisements
Track Severe Weather on mobile